Time;durP1;ratioP1;P1;durP2;ratioP2;P2;SDS_P1;SDS_P2;PMS_P1;PMS_P2;Temp;Humidity;BMP_temperature;BMP_pressure;BME280_temperature;BME280_humidity;BME280_pressure;Samples;Min_cycle;Max_cycle;Signal;HPM_P1;HPM_P2
2023/03/25 00:00:17;;;;;;;;;3.00;1.33;;;;;-147.17;100.00;-15917.19;5020502;28;52033;-53
2023/03/25 00:02:51;;;;;;;;;2.00;1.00;;;;;-147.17;100.00;-15917.19;5017841;28;52567;-50
2023/03/25 00:05:19;;;;;;;;;1.00;1.00;;;;;-147.17;100.00;-15917.19;5014870;28;51202;-48
2023/03/25 00:07:47;;;;;;;;;2.00;1.67;;;;;-147.17;100.00;-15917.19;5018600;28;51122;-50
2023/03/25 00:10:13;;;;;;;;;4.33;2.67;;;;;-147.17;100.00;-15917.19;5019946;28;51221;-47
2023/03/25 00:12:39;;;;;;;;;1.00;1.00;;;;;-147.17;100.00;-15917.19;5021698;28;51980;-48
2023/03/25 00:15:06;;;;;;;;;0.33;0.00;;;;;-147.17;100.00;-15917.19;5014914;28;51298;-48
2023/03/25 00:17:31;;;;;;;;;2.00;2.00;;;;;-147.17;100.00;-15917.19;4998173;28;51482;-48
2023/03/25 00:19:59;;;;;;;;;2.67;2.00;;;;;-147.17;100.00;-15917.19;5016018;28;51188;-48
2023/03/25 00:22:25;;;;;;;;;1.00;1.00;;;;;-147.17;100.00;-15917.19;5004998;28;51256;-48
2023/03/25 00:24:54;;;;;;;;;4.00;2.00;;;;;-147.17;100.00;-15917.19;5020855;28;51253;-49
2023/03/25 00:27:19;;;;;;;;;1.00;0.00;;;;;-147.17;100.00;-15917.19;5014705;28;51657;-48
2023/03/25 00:29:45;;;;;;;;;2.00;2.00;;;;;-147.17;100.00;-15917.19;5005645;28;51318;-51
2023/03/25 00:32:14;;;;;;;;;0.33;0.00;;;;;-147.17;100.00;-15917.19;5016808;28;51907;-48
2023/03/25 00:34:45;;;;;;;;;1.00;1.00;;;;;-147.17;100.00;-15917.19;5017336;28;51289;-49
2023/03/25 00:37:12;;;;;;;;;2.00;1.00;;;;;-147.17;100.00;-15917.19;5014025;28;51422;-50
2023/03/25 00:39:37;;;;;;;;;1.00;1.00;;;;;-147.17;100.00;-15917.19;5019479;28;51125;-50
2023/03/25 00:42:03;;;;;;;;;2.00;2.00;;;;;-147.17;100.00;-15917.19;5017475;28;53782;-49
2023/03/25 00:44:30;;;;;;;;;4.00;2.33;;;;;-147.17;100.00;-15917.19;5018780;28;51221;-51
2023/03/25 00:46:56;;;;;;;;;3.00;3.00;;;;;-147.17;100.00;-15917.19;5015014;28;51369;-48
2023/03/25 00:49:23;;;;;;;;;1.00;1.00;;;;;-147.17;100.00;-15917.19;5015244;28;51160;-49
2023/03/25 00:51:50;;;;;;;;;1.00;1.00;;;;;-147.17;100.00;-15917.19;5016661;28;52219;-47
2023/03/25 00:54:17;;;;;;;;;1.00;1.00;;;;;-147.17;100.00;-15917.19;5002060;28;51099;-47
2023/03/25 00:56:42;;;;;;;;;2.67;1.00;;;;;-147.17;100.00;-15917.19;5020196;28;51236;-48
2023/03/25 00:59:09;;;;;;;;;2.00;1.67;;;;;-147.17;100.00;-15917.19;5016995;28;51305;-48
2023/03/25 01:01:38;;;;;;;;;1.00;1.00;;;;;-147.17;100.00;-15917.19;5003522;28;52788;-49
2023/03/25 01:04:04;;;;;;;;;2.00;1.00;;;;;-147.17;100.00;-15917.19;5015243;28;51468;-47
2023/03/25 01:06:34;;;;;;;;;1.00;0.00;;;;;-147.17;100.00;-15917.19;5023346;28;51208;-48
2023/03/25 01:09:02;;;;;;;;;2.67;2.00;;;;;-147.17;100.00;-15917.19;5029974;28;51254;-48
2023/03/25 01:11:30;;;;;;;;;0.33;0.33;;;;;-147.17;100.00;-15917.19;5034086;28;51300;-48
2023/03/25 01:13:58;;;;;;;;;2.33;0.67;;;;;-147.17;100.00;-15917.19;5041569;28;51145;-49
2023/03/25 01:16:24;;;;;;;;;3.00;1.00;;;;;-147.17;100.00;-15917.19;5042817;28;51337;-48
2023/03/25 01:18:49;;;;;;;;;3.00;2.33;;;;;-147.17;100.00;-15917.19;5047603;28;51454;-48
2023/03/25 01:21:15;;;;;;;;;2.67;1.67;;;;;-147.17;100.00;-15917.19;5051332;28;51479;-50
2023/03/25 01:23:40;;;;;;;;;2.33;1.00;;;;;-147.17;100.00;-15917.19;5045491;28;50904;-48
2023/03/25 01:26:06;;;;;;;;;2.67;2.00;;;;;-147.17;100.00;-15917.19;5040610;28;51220;-48
2023/03/25 01:28:31;;;;;;;;;3.00;1.00;;;;;-147.17;100.00;-15917.19;5052150;28;51217;-47
2023/03/25 01:31:06;;;;;;;;;3.00;1.67;;;;;-147.17;100.00;-15917.19;5052134;28;51179;-47
2023/03/25 01:33:32;;;;;;;;;2.00;0.00;;;;;-147.17;100.00;-15917.19;5048101;28;51157;-49
2023/03/25 01:35:58;;;;;;;;;2.00;2.00;;;;;-147.17;100.00;-15917.19;5050890;28;51118;-48
2023/03/25 01:38:23;;;;;;;;;2.67;1.33;;;;;-147.17;100.00;-15917.19;5053079;28;51169;-51
2023/03/25 01:40:51;;;;;;;;;2.00;1.00;;;;;-147.17;100.00;-15917.19;5047735;28;51168;-49
2023/03/25 01:43:17;;;;;;;;;2.00;2.00;;;;;-147.17;100.00;-15917.19;5051360;28;51026;-47
2023/03/25 01:45:44;;;;;;;;;2.00;1.00;;;;;-147.17;100.00;-15917.19;5048825;28;51278;-49
2023/03/25 01:48:19;;;;;;;;;3.67;1.00;;;;;-147.17;100.00;-15917.19;5050851;28;50967;-49
2023/03/25 01:50:53;;;;;;;;;3.00;1.00;;;;;-147.17;100.00;-15917.19;5030534;28;52066;-52
2023/03/25 01:53:19;;;;;;;;;2.00;2.00;;;;;-147.17;100.00;-15917.19;5050005;28;51196;-49
2023/03/25 01:55:45;;;;;;;;;3.67;2.00;;;;;-147.17;100.00;-15917.19;5049763;28;51244;-48
2023/03/25 01:58:14;;;;;;;;;2.67;2.00;;;;;-147.17;100.00;-15917.19;5050665;28;51394;-48
2023/03/25 02:00:43;;;;;;;;;1.00;1.00;;;;;-147.17;100.00;-15917.19;5051995;28;52311;-48
2023/03/25 02:03:10;;;;;;;;;2.00;1.00;;;;;-147.17;100.00;-15917.19;5043195;28;51225;-50
2023/03/25 02:05:53;;;;;;;;;1.00;1.00;;;;;-147.17;100.00;-15917.19;5048302;28;51404;-48
2023/03/25 02:08:23;;;;;;;;;2.67;2.00;;;;;-147.17;100.00;-15917.19;5047210;28;51300;-48
2023/03/25 02:10:49;;;;;;;;;3.00;3.00;;;;;-147.17;100.00;-15917.19;5032609;28;52788;-51
2023/03/25 02:13:15;;;;;;;;;4.50;2.00;;;;;-147.17;100.00;-15917.19;5047171;28;51227;-53
2023/03/25 02:16:06;;;;;;;;;2.00;1.00;;;;;-147.17;100.00;-15917.19;5049963;28;51256;-50
2023/03/25 02:19:03;;;;;;;;;2.00;1.33;;;;;-147.17;100.00;-15917.19;5039454;28;51087;-49
2023/03/25 02:21:56;;;;;;;;;1.50;1.50;;;;;-147.17;100.00;-15917.19;5042354;28;52081;-52
2023/03/25 02:24:41;;;;;;;;;1.00;1.00;;;;;-147.17;100.00;-15917.19;5046467;28;51075;-52
2023/03/25 02:27:26;;;;;;;;;1.00;0.67;;;;;-147.17;100.00;-15917.19;5035947;28;50987;-51
2023/03/25 02:29:52;;;;;;;;;1.00;1.00;;;;;-147.17;100.00;-15917.19;5046033;28;51132;-48
2023/03/25 02:32:52;;;;;;;;;1.00;1.00;;;;;-147.17;100.00;-15917.19;5031889;28;54155;-51
2023/03/25 02:35:42;;;;;;;;;2.00;2.00;;;;;-147.17;100.00;-15917.19;5021877;28;51373;-50
2023/03/25 02:38:24;;;;;;;;;4.75;1.75;;;;;-147.17;100.00;-15917.19;5042983;28;51204;-50
2023/03/25 02:41:29;;;;;;;;;0.33;0.33;;;;;-147.17;100.00;-15917.19;5054483;28;51204;-50
2023/03/25 02:44:07;;;;;;;;;1.00;1.00;;;;;-147.17;100.00;-15917.19;5023255;28;51760;-50
2023/03/25 02:46:35;;;;;;;;;1.33;0.67;;;;;-147.17;100.00;-15917.19;5050384;28;51046;-51
2023/03/25 02:49:07;;;;;;;;;2.33;2.00;;;;;-147.17;100.00;-15917.19;5047951;28;51138;-50
2023/03/25 02:51:42;;;;;;;;;6.25;5.75;;;;;-147.17;100.00;-15917.19;5052411;28;51098;-48
2023/03/25 02:54:11;;;;;;;;;3.75;2.75;;;;;-147.17;100.00;-15917.19;5055407;28;52099;-47
2023/03/25 02:56:39;;;;;;;;;2.50;1.50;;;;;-147.17;100.00;-15917.19;5033863;28;51007;-48
2023/03/25 02:59:07;;;;;;;;;1.00;1.00;;;;;-147.17;100.00;-15917.19;5053596;28;50962;-51
2023/03/25 03:01:33;;;;;;;;;1.75;1.00;;;;;-147.17;100.00;-15917.19;5053601;28;51057;-50
2023/03/25 03:03:59;;;;;;;;;4.25;2.00;;;;;-147.17;100.00;-15917.19;5046482;28;51051;-49
2023/03/25 03:06:26;;;;;;;;;3.00;1.00;;;;;-147.17;100.00;-15917.19;5030712;28;51610;-50
2023/03/25 03:09:16;;;;;;;;;2.00;0.33;;;;;-147.17;100.00;-15917.19;5045578;28;51151;-47
2023/03/25 03:12:07;;;;;;;;;3.33;1.00;;;;;-147.17;100.00;-15917.19;5053274;28;50864;-47
2023/03/25 03:15:06;;;;;;;;;3.33;2.00;;;;;-147.17;100.00;-15917.19;5054128;28;51995;-51
2023/03/25 03:17:44;;;;;;;;;1.00;1.00;;;;;-147.17;100.00;-15917.19;5051949;28;51168;-49
2023/03/25 03:20:38;;;;;;;;;3.00;2.75;;;;;-147.17;100.00;-15917.19;5053048;28;51100;-52
2023/03/25 03:23:12;;;;;;;;;2.00;1.00;;;;;-147.17;100.00;-15917.19;5050036;28;51249;-50
2023/03/25 03:25:49;;;;;;;;;2.00;1.00;;;;;-147.17;100.00;-15917.19;5048450;28;52235;-51
2023/03/25 03:28:24;;;;;;;;;1.00;1.00;;;;;-147.17;100.00;-15917.19;5049010;28;51157;-51
2023/03/25 03:31:05;;;;;;;;;0.00;0.00;;;;;-147.17;100.00;-15917.19;5054997;28;51144;-50
2023/03/25 03:33:40;;;;;;;;;0.00;0.00;;;;;-147.17;100.00;-15917.19;5049643;28;51314;-49
2023/03/25 03:36:12;;;;;;;;;0.50;0.50;;;;;-147.17;100.00;-15917.19;5053238;28;52086;-46
2023/03/25 03:38:41;;;;;;;;;2.75;1.50;;;;;-147.17;100.00;-15917.19;5053026;28;51218;-50
2023/03/25 03:41:11;;;;;;;;;1.00;0.00;;;;;-147.17;100.00;-15917.19;5051831;28;50888;-51
2023/03/25 03:43:41;;;;;;;;;1.00;1.00;;;;;-147.17;100.00;-15917.19;5036527;28;51316;-48
2023/03/25 03:46:14;;;;;;;;;1.00;1.00;;;;;-147.17;100.00;-15917.19;5044901;28;53790;-49
2023/03/25 03:48:46;;;;;;;;;2.00;1.00;;;;;-147.17;100.00;-15917.19;5049231;28;51215;-49
2023/03/25 03:51:20;;;;;;;;;3.00;2.00;;;;;-147.17;100.00;-15917.19;5051581;28;51268;-50
2023/03/25 03:53:57;;;;;;;;;2.00;1.67;;;;;-147.17;100.00;-15917.19;5050811;28;51437;-47
2023/03/25 03:56:35;;;;;;;;;1.33;1.00;;;;;-147.17;100.00;-15917.19;5048200;28;52236;-49
2023/03/25 03:59:14;;;;;;;;;1.00;0.67;;;;;-147.17;100.00;-15917.19;5035751;28;51385;-49
2023/03/25 04:02:02;;;;;;;;;1.00;1.00;;;;;-147.17;100.00;-15917.19;5046631;28;51300;-50
2023/03/25 04:04:30;;;;;;;;;2.00;1.33;;;;;-147.17;100.00;-15917.19;5045706;28;51193;-52
2023/03/25 04:07:09;;;;;;;;;1.33;1.00;;;;;-147.17;100.00;-15917.19;5050874;28;51247;-50
2023/03/25 04:09:39;;;;;;;;;0.00;0.00;;;;;-147.17;100.00;-15917.19;5058238;28;51158;-49
2023/03/25 04:12:08;;;;;;;;;0.00;0.00;;;;;-147.17;100.00;-15917.19;5047973;28;51281;-48
2023/03/25 04:14:35;;;;;;;;;5.50;2.00;;;;;-147.17;100.00;-15917.19;5049508;28;51193;-47
2023/03/25 04:17:01;;;;;;;;;2.00;1.00;;;;;-147.17;100.00;-15917.19;5048971;28;52129;-52
2023/03/25 04:19:26;;;;;;;;;2.00;1.00;;;;;-147.17;100.00;-15917.19;5051902;28;51279;-51
2023/03/25 04:21:52;;;;;;;;;1.00;1.00;;;;;-147.17;100.00;-15917.19;5052100;28;51768;-50
2023/03/25 04:24:18;;;;;;;;;1.00;0.67;;;;;-147.17;100.00;-15917.19;5051701;28;51292;-49
2023/03/25 04:26:44;;;;;;;;;1.00;0.00;;;;;-147.17;100.00;-15917.19;5050350;28;52628;-48
2023/03/25 04:29:12;;;;;;;;;1.00;0.67;;;;;-147.17;100.00;-15917.19;5034149;28;51070;-51
2023/03/25 04:31:45;;;;;;;;;2.00;1.33;;;;;-147.17;100.00;-15917.19;5050887;28;51348;-48
2023/03/25 04:34:15;;;;;;;;;1.00;1.00;;;;;-147.17;100.00;-15917.19;5045056;28;51332;-51
2023/03/25 04:36:41;;;;;;;;;2.00;1.67;;;;;-147.17;100.00;-15917.19;5049292;28;51045;-50
2023/03/25 04:39:10;;;;;;;;;1.00;0.00;;;;;-147.17;100.00;-15917.19;5048199;28;50915;-49
2023/03/25 04:41:36;;;;;;;;;0.00;0.00;;;;;-147.17;100.00;-15917.19;5049556;28;51154;-47
2023/03/25 04:44:01;;;;;;;;;0.67;0.00;;;;;-147.17;100.00;-15917.19;5051020;28;51099;-49
2023/03/25 04:46:27;;;;;;;;;1.00;0.00;;;;;-147.17;100.00;-15917.19;5032913;28;53476;-48
2023/03/25 04:48:52;;;;;;;;;4.00;1.00;;;;;-147.17;100.00;-15917.19;5048313;28;51242;-50
2023/03/25 04:51:18;;;;;;;;;1.00;0.67;;;;;-147.17;100.00;-15917.19;5032846;28;51374;-48
2023/03/25 04:53:44;;;;;;;;;0.00;0.00;;;;;-147.17;100.00;-15917.19;5051851;28;50845;-51
2023/03/25 04:56:15;;;;;;;;;1.00;1.00;;;;;-147.17;100.00;-15917.19;5040774;28;53155;-49
2023/03/25 04:58:45;;;;;;;;;0.33;0.00;;;;;-147.17;100.00;-15917.19;5033499;28;51135;-49
2023/03/25 05:01:29;;;;;;;;;2.00;1.00;;;;;-147.17;100.00;-15917.19;5048648;28;53533;-47
2023/03/25 05:04:05;;;;;;;;;1.67;1.00;;;;;-147.17;100.00;-15917.19;5048971;28;51358;-51
2023/03/25 05:06:32;;;;;;;;;0.00;0.00;;;;;-147.17;100.00;-15917.19;5048686;28;51246;-50
2023/03/25 05:09:00;;;;;;;;;1.00;1.00;;;;;-147.17;100.00;-15917.19;5050782;28;51148;-48
2023/03/25 05:11:29;;;;;;;;;1.00;1.00;;;;;-147.17;100.00;-15917.19;5051187;28;50915;-49
2023/03/25 05:13:54;;;;;;;;;3.00;2.00;;;;;-147.17;100.00;-15917.19;5051806;28;51170;-50
2023/03/25 05:16:20;;;;;;;;;0.00;0.00;;;;;-147.17;100.00;-15917.19;5052364;28;52249;-48
2023/03/25 05:18:46;;;;;;;;;1.67;0.00;;;;;-147.17;100.00;-15917.19;5047203;28;51435;-50
2023/03/25 05:21:11;;;;;;;;;2.00;0.00;;;;;-147.17;100.00;-15917.19;5048773;28;51138;-47
2023/03/25 05:23:37;;;;;;;;;0.00;0.00;;;;;-147.17;100.00;-15917.19;5051834;28;51237;-49
2023/03/25 05:26:03;;;;;;;;;1.67;0.00;;;;;-147.17;100.00;-15917.19;5053135;28;51266;-50
2023/03/25 05:28:29;;;;;;;;;0.00;0.00;;;;;-147.17;100.00;-15917.19;5030266;28;51122;-51
2023/03/25 05:30:55;;;;;;;;;2.00;1.00;;;;;-147.17;100.00;-15917.19;5030897;28;51122;-53
2023/03/25 05:33:21;;;;;;;;;0.33;0.00;;;;;-147.17;100.00;-15917.19;5050986;28;51069;-49
2023/03/25 05:35:47;;;;;;;;;1.00;0.00;;;;;-147.17;100.00;-15917.19;5050524;28;51189;-51
2023/03/25 05:38:17;;;;;;;;;0.33;0.00;;;;;-147.17;100.00;-15917.19;5048479;28;51164;-48
2023/03/25 05:40:44;;;;;;;;;0.67;0.00;;;;;-147.17;100.00;-15917.19;5050792;28;51228;-48
2023/03/25 05:43:10;;;;;;;;;0.00;0.00;;;;;-147.17;100.00;-15917.19;5051463;28;51153;-49
2023/03/25 05:45:35;;;;;;;;;0.00;0.00;;;;;-147.17;100.00;-15917.19;5051129;28;51530;-49
2023/03/25 05:48:01;;;;;;;;;0.67;0.00;;;;;-147.17;100.00;-15917.19;5050890;28;51077;-54
2023/03/25 05:50:27;;;;;;;;;0.33;0.00;;;;;-147.17;100.00;-15917.19;5051491;28;50962;-49
2023/03/25 05:52:54;;;;;;;;;0.00;0.00;;;;;-147.17;100.00;-15917.19;5024687;28;51423;-51
2023/03/25 05:55:21;;;;;;;;;0.67;0.00;;;;;-147.17;100.00;-15917.19;5049010;28;51668;-49
2023/03/25 05:57:47;;;;;;;;;0.67;0.00;;;;;-147.17;100.00;-15917.19;5051515;28;51230;-47
2023/03/25 06:00:14;;;;;;;;;0.00;0.00;;;;;-147.17;100.00;-15917.19;5053879;28;51148;-47
2023/03/25 06:02:41;;;;;;;;;0.33;0.00;;;;;-147.17;100.00;-15917.19;5049753;28;51102;-51
2023/03/25 06:05:08;;;;;;;;;1.33;1.00;;;;;-147.17;100.00;-15917.19;5051162;28;51020;-49
2023/03/25 06:07:36;;;;;;;;;1.00;1.00;;;;;-147.17;100.00;-15917.19;5048624;28;51231;-52
2023/03/25 06:10:02;;;;;;;;;2.00;1.00;;;;;-147.17;100.00;-15917.19;5049842;28;51272;-49
2023/03/25 06:12:31;;;;;;;;;0.67;0.67;;;;;-147.17;100.00;-15917.19;5035128;28;51391;-50
2023/03/25 06:14:57;;;;;;;;;2.00;1.00;;;;;-147.17;100.00;-15917.19;5049277;28;52796;-48
2023/03/25 06:17:22;;;;;;;;;0.67;0.33;;;;;-147.17;100.00;-15917.19;5050921;28;51185;-50
2023/03/25 06:19:49;;;;;;;;;0.67;0.67;;;;;-147.17;100.00;-15917.19;5030387;28;51369;-51
2023/03/25 06:22:15;;;;;;;;;0.67;0.67;;;;;-147.17;100.00;-15917.19;5050288;28;51265;-53
2023/03/25 06:24:41;;;;;;;;;0.00;0.00;;;;;-147.17;100.00;-15917.19;5045122;28;51031;-50
2023/03/25 06:27:12;;;;;;;;;3.00;2.00;;;;;-147.17;100.00;-15917.19;5049924;28;51256;-55
2023/03/25 06:29:40;;;;;;;;;1.00;0.00;;;;;-147.17;100.00;-15917.19;5051039;28;50921;-51
2023/03/25 06:32:06;;;;;;;;;0.00;0.00;;;;;-147.17;100.00;-15917.19;5051019;28;51221;-49
2023/03/25 06:34:32;;;;;;;;;0.33;0.00;;;;;-147.17;100.00;-15917.19;5049368;28;51168;-52
2023/03/25 06:36:58;;;;;;;;;1.00;1.00;;;;;-147.17;100.00;-15917.19;5048921;28;51175;-50
2023/03/25 06:39:24;;;;;;;;;0.33;0.33;;;;;-147.17;100.00;-15917.19;5046838;28;51102;-53
2023/03/25 06:41:50;;;;;;;;;4.00;2.00;;;;;-147.17;100.00;-15917.19;5031015;28;51261;-51
2023/03/25 06:44:15;;;;;;;;;3.50;3.00;;;;;-147.17;100.00;-15917.19;5049892;28;51062;-49
2023/03/25 06:46:41;;;;;;;;;1.00;1.00;;;;;-147.17;100.00;-15917.19;5051788;28;50967;-49
2023/03/25 06:49:07;;;;;;;;;0.33;0.33;;;;;-147.17;100.00;-15917.19;5049713;28;51096;-52
2023/03/25 06:51:32;;;;;;;;;1.33;0.67;;;;;-147.17;100.00;-15917.19;5047128;28;51311;-50
2023/03/25 06:53:58;;;;;;;;;1.00;0.00;;;;;-147.17;100.00;-15917.19;5049617;28;51886;-48
2023/03/25 06:56:23;;;;;;;;;0.67;0.00;;;;;-147.17;100.00;-15917.19;5051632;28;50905;-52
2023/03/25 06:58:48;;;;;;;;;0.00;0.00;;;;;-147.17;100.00;-15917.19;5044954;28;52320;-50
2023/03/25 07:01:14;;;;;;;;;0.00;0.00;;;;;-147.17;100.00;-15917.19;5046886;28;50925;-47
2023/03/25 07:03:40;;;;;;;;;0.00;0.00;;;;;-147.17;100.00;-15917.19;5048078;28;51087;-50
2023/03/25 07:06:13;;;;;;;;;0.00;0.00;;;;;-147.17;100.00;-15917.19;5048727;28;51251;-50
2023/03/25 07:08:38;;;;;;;;;0.00;0.00;;;;;-147.17;100.00;-15917.19;5048156;28;51303;-49
2023/03/25 07:11:06;;;;;;;;;1.00;1.00;;;;;-147.17;100.00;-15917.19;5054521;28;50875;-50
2023/03/25 07:13:32;;;;;;;;;0.00;0.00;;;;;-147.17;100.00;-15917.19;5051753;28;51430;-53
2023/03/25 07:15:58;;;;;;;;;1.00;1.00;;;;;-147.17;100.00;-15917.19;5053521;28;51026;-50
2023/03/25 07:18:23;;;;;;;;;2.00;1.00;;;;;-147.17;100.00;-15917.19;5054748;28;51041;-53
2023/03/25 07:20:49;;;;;;;;;0.00;0.00;;;;;-147.17;100.00;-15917.19;5047577;28;51141;-50
2023/03/25 07:23:15;;;;;;;;;0.00;0.00;;;;;-147.17;100.00;-15917.19;5051292;28;52280;-50
2023/03/25 07:25:40;;;;;;;;;1.00;1.00;;;;;-147.17;100.00;-15917.19;5053597;28;51059;-52
2023/03/25 07:28:06;;;;;;;;;1.00;1.00;;;;;-147.17;100.00;-15917.19;5054469;28;51164;-51
2023/03/25 07:30:31;;;;;;;;;1.67;0.33;;;;;-147.17;100.00;-15917.19;5051146;28;51228;-48
2023/03/25 07:32:57;;;;;;;;;1.00;1.00;;;;;-147.17;100.00;-15917.19;5049523;28;51407;-52
2023/03/25 07:35:23;;;;;;;;;2.67;2.00;;;;;-147.17;100.00;-15917.19;5054567;28;50971;-50
2023/03/25 07:37:48;;;;;;;;;1.00;1.00;;;;;-147.17;100.00;-15917.19;5053954;28;51110;-50
2023/03/25 07:40:14;;;;;;;;;3.00;1.00;;;;;-147.17;100.00;-15917.19;5049575;28;51065;-51
2023/03/25 07:42:39;;;;;;;;;3.33;3.00;;;;;-147.17;100.00;-15917.19;5052973;28;53159;-53
2023/03/25 07:45:05;;;;;;;;;2.00;1.00;;;;;-147.17;100.00;-15917.19;5051268;28;51022;-54
2023/03/25 07:47:31;;;;;;;;;1.00;1.00;;;;;-147.17;100.00;-15917.19;5052781;28;50952;-51
2023/03/25 07:49:56;;;;;;;;;2.00;1.00;;;;;-147.17;100.00;-15917.19;5051161;28;51328;-50
2023/03/25 07:52:21;;;;;;;;;1.00;1.00;;;;;-147.17;100.00;-15917.19;5054608;28;52283;-51
2023/03/25 07:54:47;;;;;;;;;3.00;2.00;;;;;-147.17;100.00;-15917.19;5053710;28;51076;-51
2023/03/25 07:57:12;;;;;;;;;2.00;1.00;;;;;-147.17;100.00;-15917.19;5053670;28;51325;-50
2023/03/25 07:59:38;;;;;;;;;1.33;0.33;;;;;-147.17;100.00;-15917.19;5053705;28;51228;-50
2023/03/25 08:02:03;;;;;;;;;1.67;1.00;;;;;-147.17;100.00;-15917.19;5053116;28;51713;-48
2023/03/25 08:04:29;;;;;;;;;1.00;1.00;;;;;-147.17;100.00;-15917.19;5046354;28;51193;-52
2023/03/25 08:06:54;;;;;;;;;1.00;1.00;;;;;-147.17;100.00;-15917.19;5046246;28;51144;-49
2023/03/25 08:09:20;;;;;;;;;2.00;1.00;;;;;-147.17;100.00;-15917.19;5049248;28;51038;-49
2023/03/25 08:11:47;;;;;;;;;3.00;2.00;;;;;-147.17;100.00;-15917.19;5051285;28;51915;-50
2023/03/25 08:14:13;;;;;;;;;0.00;0.00;;;;;-147.17;100.00;-15917.19;5051139;28;51097;-49
2023/03/25 08:16:38;;;;;;;;;2.33;1.67;;;;;-147.17;100.00;-15917.19;5052354;28;51176;-51
2023/03/25 08:19:03;;;;;;;;;2.33;1.33;;;;;-147.17;100.00;-15917.19;5053540;28;51199;-53
2023/03/25 08:21:29;;;;;;;;;3.33;3.00;;;;;-147.17;100.00;-15917.19;5046730;28;51140;-52
2023/03/25 08:24:01;;;;;;;;;3.33;3.00;;;;;-147.17;100.00;-15915.72;5047555;28;51146;-51
2023/03/25 08:26:28;;;;;;;;;3.00;2.00;;;;;-147.17;100.00;-15172.50;5052816;28;51201;-51
2023/03/25 08:28:57;;;;;;;;;2.00;1.00;;;;;-147.17;100.00;-12941.97;5050227;28;51335;-51
2023/03/25 08:31:29;;;;;;;;;3.00;1.00;;;;;-147.17;100.00;-13933.50;5047020;28;51810;-53
2023/03/25 08:33:56;;;;;;;;;0.00;0.00;;;;;-147.17;100.00;-13685.63;5043059;28;51401;-52
2023/03/25 08:36:22;;;;;;;;;0.00;0.00;;;;;-147.17;100.00;-13933.50;5047737;28;51183;-49
2023/03/25 08:38:48;;;;;;;;;1.33;1.00;;;;;-147.17;100.00;-14676.94;5045449;28;51127;-52
2023/03/25 08:41:13;;;;;;;;;1.00;1.00;;;;;-147.17;100.00;-14429.16;5044863;28;51913;-52
2023/03/25 08:43:39;;;;;;;;;2.00;1.33;;;;;-147.17;100.00;-14181.31;5044697;28;51290;-48
2023/03/25 08:46:05;;;;;;;;;3.67;2.00;;;;;-147.17;100.00;-13933.50;5044469;28;51073;-49
2023/03/25 08:48:31;;;;;;;;;1.00;1.00;;;;;-147.17;100.00;-13189.88;5019317;28;51326;-48
2023/03/25 08:50:56;;;;;;;;;0.33;0.00;;;;;-147.17;100.00;-11454.25;5043581;28;51164;-51
2023/03/25 08:53:22;;;;;;;;;1.00;1.00;;;;;-147.17;100.00;-13189.88;5053059;28;51103;-51
2023/03/25 08:55:55;;;;;;;;;1.67;1.67;;;;;-147.17;100.00;-13933.50;5048608;28;51201;-49
2023/03/25 08:58:21;;;;;;;;;2.00;2.00;;;;;-147.17;100.00;-14429.16;5051815;28;51095;-50
2023/03/25 09:00:48;;;;;;;;;1.00;1.00;;;;;-147.17;100.00;-13437.75;5052344;28;51894;-48
2023/03/25 09:03:13;;;;;;;;;3.00;2.00;;;;;-147.17;100.00;-13933.50;5053244;28;50994;-48
2023/03/25 09:05:39;;;;;;;;;1.00;0.00;;;;;-147.17;100.00;-12446.13;5052045;28;50975;-50
2023/03/25 09:08:06;;;;;;;;;1.33;1.33;;;;;-147.17;100.00;-11454.25;5050711;28;50986;-49
2023/03/25 09:10:31;;;;;;;;;2.00;0.00;;;;;-147.17;100.00;-5249.09;5049017;28;51123;-48
2023/03/25 09:12:57;;;;;;;;;1.00;1.00;;;;;-147.17;100.00;-3261.34;5042971;28;51214;-48
2023/03/25 09:15:22;;;;;;;;;2.00;1.00;;;;;-147.17;100.00;2957.06;5054158;28;51342;-51
2023/03/25 09:17:48;;;;;;;;;0.67;0.33;;;;;-147.17;100.00;8437.53;5034693;28;51076;-48
2023/03/25 09:20:14;;;;;;;;;2.67;1.67;;;;;-147.17;100.00;12927.34;5041182;28;52890;-53
2023/03/25 09:22:40;;;;;;;;;1.67;1.67;;;;;-147.17;100.00;10931.25;5045391;28;51198;-52
2023/03/25 09:25:09;;;;;;;;;2.00;2.00;;;;;-147.17;100.00;7939.00;5030067;28;51295;-49
2023/03/25 09:27:35;;;;;;;;;6.33;5.33;;;;;-147.17;100.00;9933.56;5047298;28;51430;-47
2023/03/25 09:30:02;;;;;;;;;2.00;1.00;;;;;-147.17;100.00;3952.94;5042233;28;52139;-48
2023/03/25 09:32:28;;;;;;;;;0.00;0.00;;;;;-147.17;100.00;6692.91;5050190;28;51160;-50
2023/03/25 09:34:53;;;;;;;;;1.00;1.00;;;;;-147.17;100.00;5696.34;5058655;28;51141;-50
2023/03/25 09:37:19;;;;;;;;;1.00;1.00;;;;;-147.17;100.00;6692.91;5046418;28;51327;-47
2023/03/25 09:39:44;;;;;;;;;1.00;1.00;;;;;-147.17;100.00;14175.44;5051722;28;51726;-48
2023/03/25 09:42:28;;;;;;;;;1.00;1.00;;;;;-147.17;100.00;17672.25;5036477;28;51022;-49
2023/03/25 09:45:15;;;;;;;;;1.00;1.00;;;;;-147.17;100.00;14674.81;5051295;28;51245;-50
2023/03/25 09:47:55;;;;;;;;;2.00;1.00;;;;;-147.17;100.00;15673.69;5050078;28;51011;-47
2023/03/25 09:50:23;;;;;;;;;0.67;0.67;;;;;-147.17;100.00;18172.06;5045278;28;51950;-48
2023/03/25 09:53:06;;;;;;;;;0.00;0.00;;;;;-147.17;100.00;19671.84;5047533;28;51176;-47
2023/03/25 09:55:38;;;;;;;;;1.67;1.67;;;;;-147.17;100.00;17422.38;5051954;28;51102;-49
2023/03/25 09:58:40;;;;;;;;;2.00;1.00;;;;;-147.17;100.00;14175.44;5046260;28;51007;-49
2023/03/25 10:01:20;;;;;;;;;13.00;12.00;;;;;-147.17;100.00;13925.81;5034068;28;51333;-50
2023/03/25 10:04:09;;;;;;;;;1.00;0.00;;;;;-147.17;100.00;10182.97;5047278;28;51094;-48
2023/03/25 10:06:47;;;;;;;;;2.67;1.00;;;;;-147.17;100.00;7689.75;5051331;28;50956;-48
2023/03/25 10:09:41;;;;;;;;;1.00;1.00;;;;;-147.17;100.00;7689.75;5039539;28;51305;-50
2023/03/25 10:12:16;;;;;;;;;1.67;1.00;;;;;-147.17;100.00;5945.44;5040446;28;52150;-47
2023/03/25 10:15:06;;;;;;;;;0.00;0.00;;;;;-147.17;100.00;3952.94;5051958;28;51003;-49
2023/03/25 10:17:53;;;;;;;;;0.00;0.00;;;;;-147.17;100.00;4949.06;5049365;28;51164;-50
2023/03/25 10:20:41;;;;;;;;;2.00;2.00;;;;;-147.17;100.00;5198.13;5051923;28;51232;-46
2023/03/25 10:23:15;;;;;;;;;1.67;1.00;;;;;-147.17;100.00;4949.06;5051077;28;52009;-48
2023/03/25 10:25:55;;;;;;;;;0.67;0.00;;;;;-147.17;100.00;6692.91;5052300;28;51043;-47
2023/03/25 10:28:31;;;;;;;;;0.33;0.33;;;;;-147.17;100.00;11679.66;5008544;28;51045;-49
2023/03/25 10:30:58;;;;;;;;;2.00;1.00;;;;;-147.17;100.00;19171.84;5029388;28;51098;-51
2023/03/25 10:33:44;;;;;;;;;1.00;1.00;;;;;-147.17;100.00;12927.34;5050326;28;52340;-48
2023/03/25 10:36:20;;;;;;;;;5.67;4.00;;;;;-147.17;100.00;15923.47;5029907;28;51214;-48
2023/03/25 10:38:49;;;;;;;;;1.33;1.33;;;;;-147.17;100.00;15923.47;5045771;28;51182;-49
2023/03/25 10:41:35;;;;;;;;;3.00;1.67;;;;;-147.17;100.00;27073.75;5047471;28;51153;-48
2023/03/25 10:44:07;;;;;;;;;2.00;0.67;;;;;-147.17;100.00;27048.31;5050774;28;51794;-47
2023/03/25 10:46:47;;;;;;;;;3.00;2.33;;;;;-147.17;100.00;32259.16;5031003;28;51902;-50
2023/03/25 10:49:19;;;;;;;;;2.67;2.67;;;;;-147.17;100.00;28600.47;5050540;28;51140;-48
2023/03/25 10:51:46;;;;;;;;;1.33;1.33;;;;;-147.17;100.00;22923.34;5038422;28;51377;-46
2023/03/25 10:54:13;;;;;;;;;4.00;3.00;;;;;-147.17;100.00;20672.00;5054482;28;52091;-49
2023/03/25 10:56:49;;;;;;;;;3.67;3.00;;;;;-147.17;100.00;16672.84;5036627;28;51153;-48
2023/03/25 10:59:23;;;;;;;;;2.33;2.33;;;;;-147.17;100.00;16423.03;5048622;28;51048;-48
2023/03/25 11:01:54;;;;;;;;;2.00;2.00;;;;;-147.17;100.00;14674.81;5023994;28;51485;-48
2023/03/25 11:04:22;;;;;;;;;0.67;0.67;;;;;-147.17;100.00;15174.22;5037005;28;51232;-49
2023/03/25 11:06:59;;;;;;;;;2.00;2.00;;;;;-147.17;100.00;13925.81;5047886;28;51140;-51
2023/03/25 11:09:29;;;;;;;;;1.00;1.00;;;;;-147.17;100.00;17922.16;5050786;28;51059;-48
2023/03/25 11:11:58;;;;;;;;;3.00;2.00;;;;;-147.17;100.00;16922.66;5060330;28;51166;-50
2023/03/25 11:14:26;;;;;;;;;1.33;1.00;;;;;-147.17;100.00;17672.25;5051893;28;52441;-49
2023/03/25 11:17:15;;;;;;;;;1.33;1.00;;;;;-147.17;100.00;22422.94;5054655;28;50926;-54